createdAt,value
2023-05-01T00:02:17.896Z,6.60
2023-05-01T00:04:47.153Z,5.50
2023-05-01T00:07:16.984Z,6.20
2023-05-01T00:09:46.369Z,6.10
2023-05-01T00:12:15.063Z,6.10
2023-05-01T00:14:44.306Z,5.90
2023-05-01T00:17:13.253Z,6.10
2023-05-01T00:19:41.943Z,6.10
2023-05-01T00:22:10.834Z,6.30
2023-05-01T00:24:39.606Z,6.40
2023-05-01T00:27:09.215Z,5.70
2023-05-01T00:29:38.537Z,5.80
2023-05-01T00:32:07.954Z,6.60
2023-05-01T00:34:36.504Z,6.30
2023-05-01T00:37:05.505Z,6.10
2023-05-01T00:39:35.138Z,6.20
2023-05-01T00:42:04.311Z,6.30
2023-05-01T00:44:33.094Z,6.10
2023-05-01T00:47:02.829Z,5.70
2023-05-01T00:49:31.804Z,5.30
2023-05-01T00:52:00.486Z,5.30
2023-05-01T00:54:29.591Z,5.40
2023-05-01T00:56:59.282Z,5.90
2023-05-01T00:59:28.589Z,5.60
2023-05-01T01:01:57.268Z,6.40
2023-05-01T01:04:29.274Z,6.80
2023-05-01T01:07:26.185Z,6.50
2023-05-01T01:09:57.890Z,6.90
2023-05-01T01:12:39.223Z,6.60
2023-05-01T01:15:27.575Z,7.50
2023-05-01T01:18:09.965Z,8.10
2023-05-01T01:21:11.455Z,8.00
2023-05-01T01:24:02.330Z,6.50
2023-05-01T01:26:52.113Z,6.70
2023-05-01T01:29:48.662Z,5.50
2023-05-01T01:32:42.567Z,5.90
2023-05-01T01:35:21.773Z,6.70
2023-05-01T01:37:58.558Z,6.30
2023-05-01T01:40:34.691Z,6.30
2023-05-01T01:43:06.245Z,5.90
2023-05-01T01:45:44.162Z,6.90
2023-05-01T01:48:18.031Z,6.50
2023-05-01T01:50:47.877Z,6.10
2023-05-01T01:53:18.789Z,6.20
2023-05-01T01:55:48.719Z,7.10
2023-05-01T01:58:17.925Z,6.70
2023-05-01T02:00:48.144Z,6.80
2023-05-01T02:03:18.316Z,5.60
2023-05-01T02:05:47.671Z,6.00
2023-05-01T02:08:17.694Z,6.60
2023-05-01T02:10:48.223Z,5.80
2023-05-01T02:13:17.924Z,5.50
2023-05-01T02:15:47.548Z,6.20
2023-05-01T02:18:16.807Z,6.10
2023-05-01T02:20:45.926Z,5.80
2023-05-01T02:23:15.425Z,6.30
2023-05-01T02:25:45.470Z,6.20
2023-05-01T02:28:16.496Z,6.00
2023-05-01T02:30:47.608Z,6.10
2023-05-01T02:33:16.744Z,6.00
2023-05-01T02:35:48.401Z,6.20
2023-05-01T02:38:18.105Z,6.50
2023-05-01T02:40:51.237Z,6.80
2023-05-01T02:43:21.928Z,6.80
2023-05-01T02:45:51.998Z,7.10
2023-05-01T02:48:24.358Z,6.70
2023-05-01T02:50:54.403Z,6.10
2023-05-01T02:53:23.325Z,6.50
2023-05-01T02:55:55.105Z,7.10
2023-05-01T02:58:24.275Z,7.00
2023-05-01T03:00:52.993Z,7.90
2023-05-01T03:03:23.142Z,7.40
2023-05-01T03:05:52.673Z,6.70
2023-05-01T03:08:21.354Z,6.90
2023-05-01T03:10:51.625Z,6.90
2023-05-01T03:13:20.488Z,6.40
2023-05-01T03:15:49.994Z,7.10
2023-05-01T03:18:18.903Z,7.20
2023-05-01T03:20:57.370Z,7.10
2023-05-01T03:23:26.681Z,7.70
2023-05-01T03:25:55.266Z,7.30
2023-05-01T03:28:24.463Z,7.70
2023-05-01T03:30:53.977Z,7.50
2023-05-01T03:33:23.255Z,7.80
2023-05-01T03:36:01.126Z,6.80
2023-05-01T03:38:31.084Z,8.30
2023-05-01T03:41:11.971Z,7.70
2023-05-01T03:43:46.978Z,6.10
2023-05-01T03:46:33.433Z,7.50
2023-05-01T03:49:02.574Z,6.50
2023-05-01T03:51:33.408Z,6.70
2023-05-01T03:54:02.341Z,6.90
2023-05-01T03:56:37.028Z,7.30
2023-05-01T03:59:07.064Z,7.60
2023-05-01T04:01:35.964Z,7.10
2023-05-01T04:04:05.153Z,7.50
2023-05-01T04:06:34.567Z,7.20
2023-05-01T04:09:03.938Z,7.50
2023-05-01T04:11:32.748Z,7.70
2023-05-01T04:14:01.926Z,8.00
2023-05-01T04:16:31.157Z,9.10
2023-05-01T04:19:01.367Z,8.30
2023-05-01T04:21:32.198Z,8.70
2023-05-01T04:24:01.175Z,7.70
2023-05-01T04:26:31.406Z,7.80
2023-05-01T04:29:02.710Z,7.40
2023-05-01T04:31:31.892Z,7.70
2023-05-01T04:34:00.728Z,7.10
2023-05-01T04:36:30.150Z,7.80
2023-05-01T04:38:58.814Z,6.90
2023-05-01T04:41:29.180Z,7.40
2023-05-01T04:43:57.849Z,7.80
2023-05-01T04:46:26.838Z,6.80
2023-05-01T04:48:55.825Z,7.40
2023-05-01T04:51:24.505Z,7.20
2023-05-01T04:53:54.619Z,7.60
2023-05-01T04:56:26.193Z,7.30
2023-05-01T04:58:57.740Z,7.70
2023-05-01T05:01:27.982Z,7.30
2023-05-01T05:03:57.313Z,7.20
2023-05-01T05:06:26.700Z,7.00
2023-05-01T05:08:57.513Z,7.40
2023-05-01T05:11:26.914Z,7.00
2023-05-01T05:14:12.900Z,6.40
2023-05-01T05:16:42.205Z,7.90
2023-05-01T05:19:12.297Z,7.80
2023-05-01T05:21:43.045Z,7.20
2023-05-01T05:24:12.551Z,7.30
2023-05-01T05:26:41.965Z,7.90
2023-05-01T05:29:11.147Z,7.10
2023-05-01T05:31:40.099Z,7.10
2023-05-01T05:34:09.224Z,7.70
2023-05-01T05:36:38.422Z,7.20
2023-05-01T05:39:07.529Z,8.30
2023-05-01T05:41:37.147Z,6.90
2023-05-01T05:44:06.335Z,7.00
2023-05-01T05:46:35.416Z,7.40
2023-05-01T05:49:04.221Z,6.60
2023-05-01T05:51:33.527Z,6.50
2023-05-01T05:54:03.220Z,7.40
2023-05-01T05:56:32.523Z,7.50
2023-05-01T05:59:04.283Z,6.80
2023-05-01T06:01:33.583Z,8.00
2023-05-01T06:04:02.894Z,6.80
2023-05-01T06:06:32.768Z,6.90
2023-05-01T06:09:02.984Z,6.50
2023-05-01T06:11:32.827Z,7.50
2023-05-01T06:14:04.058Z,6.70
2023-05-01T06:16:34.583Z,6.70
2023-05-01T06:19:04.830Z,6.30
2023-05-01T06:21:36.395Z,6.20
2023-05-01T06:24:06.563Z,6.00
2023-05-01T06:26:44.314Z,5.10
2023-05-01T06:29:13.410Z,5.80
2023-05-01T06:31:42.775Z,5.50
2023-05-01T06:34:12.224Z,6.40
2023-05-01T06:36:59.616Z,5.70
2023-05-01T06:39:28.801Z,5.40
2023-05-01T06:41:57.913Z,5.00
2023-05-01T06:44:36.649Z,5.90
2023-05-01T06:47:06.030Z,5.80
2023-05-01T06:49:34.822Z,5.10
2023-05-01T06:52:04.438Z,5.30
2023-05-01T06:54:33.125Z,5.50
2023-05-01T06:57:02.100Z,4.60
2023-05-01T06:59:32.020Z,4.60
2023-05-01T07:02:01.149Z,4.50
2023-05-01T07:04:29.822Z,4.60
2023-05-01T07:06:58.580Z,4.30
2023-05-01T07:09:27.574Z,3.90
2023-05-01T07:11:58.960Z,4.30
2023-05-01T07:14:28.227Z,4.20
2023-05-01T07:16:57.441Z,5.40
2023-05-01T07:19:26.626Z,4.60
2023-05-01T07:21:55.727Z,5.20
2023-05-01T07:24:24.507Z,4.80
2023-05-01T07:26:53.306Z,4.10
2023-05-01T07:29:22.186Z,4.00
2023-05-01T07:31:51.020Z,5.50
2023-05-01T07:34:20.065Z,4.20
2023-05-01T07:36:48.966Z,4.50
2023-05-01T07:39:18.529Z,5.20
2023-05-01T07:41:48.085Z,4.20
2023-05-01T07:44:17.291Z,4.50
2023-05-01T07:46:46.066Z,4.80
2023-05-01T07:49:14.937Z,3.90
2023-05-01T07:51:45.327Z,4.60
2023-05-01T07:54:16.603Z,4.00
2023-05-01T07:56:46.354Z,3.70
2023-05-01T07:59:16.746Z,3.60
2023-05-01T08:01:52.003Z,3.10
2023-05-01T08:04:28.998Z,3.10
2023-05-01T08:06:58.994Z,3.60
2023-05-01T08:09:29.101Z,3.20
2023-05-01T08:11:58.103Z,3.60
2023-05-01T08:14:26.884Z,2.90
2023-05-01T08:16:56.295Z,2.60
2023-05-01T08:19:25.802Z,2.90
2023-05-01T08:21:55.972Z,3.00
2023-05-01T08:24:24.889Z,3.10
2023-05-01T08:26:53.964Z,3.00
2023-05-01T08:29:23.412Z,3.50
2023-05-01T08:31:53.067Z,3.40
2023-05-01T08:34:23.170Z,3.60
2023-05-01T08:36:52.437Z,2.60
2023-05-01T08:39:22.162Z,2.60
2023-05-01T08:41:51.647Z,3.30
2023-05-01T08:44:26.035Z,3.60
2023-05-01T08:47:03.319Z,4.30
2023-05-01T08:49:35.147Z,4.40
2023-05-01T08:52:05.107Z,4.30
2023-05-01T08:54:34.271Z,4.50
2023-05-01T08:57:08.904Z,4.30
2023-05-01T08:59:40.086Z,4.70
2023-05-01T09:02:10.390Z,4.90
2023-05-01T09:04:41.353Z,3.80
2023-05-01T09:07:13.434Z,4.20
2023-05-01T09:09:42.214Z,4.10
2023-05-01T09:12:26.651Z,4.50
2023-05-01T09:14:56.684Z,3.80
2023-05-01T09:17:26.000Z,3.50
2023-05-01T09:19:54.831Z,3.90
2023-05-01T09:22:24.276Z,3.10
2023-05-01T09:24:52.968Z,2.70
2023-05-01T09:27:21.764Z,4.10
2023-05-01T09:29:50.497Z,3.10
2023-05-01T09:32:26.276Z,3.10
2023-05-01T09:34:56.337Z,3.70
2023-05-01T09:37:27.989Z,3.20
2023-05-01T09:40:02.801Z,3.70
2023-05-01T09:42:35.584Z,3.50
2023-05-01T09:45:13.766Z,3.40
2023-05-01T09:47:44.933Z,3.70
2023-05-01T09:50:33.916Z,3.00
2023-05-01T09:53:05.127Z,3.20
2023-05-01T09:55:34.742Z,2.50
2023-05-01T09:58:04.126Z,3.40
2023-05-01T10:00:33.867Z,3.20
2023-05-01T10:03:14.894Z,3.60
2023-05-01T10:05:44.875Z,3.30
2023-05-01T10:08:16.997Z,3.30
2023-05-01T10:11:00.966Z,3.20
2023-05-01T10:13:30.627Z,3.20
2023-05-01T10:16:01.968Z,3.40
2023-05-01T10:18:31.308Z,3.00
2023-05-01T10:21:00.110Z,3.00
2023-05-01T10:23:29.807Z,3.60
2023-05-01T10:26:00.847Z,3.50
2023-05-01T10:28:31.186Z,3.60
2023-05-01T10:30:59.896Z,3.50
2023-05-01T10:33:29.028Z,3.10
2023-05-01T10:36:00.209Z,3.20
2023-05-01T10:38:37.008Z,3.10
2023-05-01T10:41:07.098Z,2.60
2023-05-01T10:43:35.788Z,3.10
2023-05-01T10:46:10.371Z,2.70
2023-05-01T10:48:45.351Z,3.40
2023-05-01T10:51:17.671Z,3.00
2023-05-01T10:53:47.842Z,3.30
2023-05-01T10:56:25.724Z,3.30
2023-05-01T10:58:56.353Z,3.00
2023-05-01T11:01:48.281Z,3.10
2023-05-01T11:04:20.034Z,2.50
2023-05-01T11:07:08.832Z,3.00
2023-05-01T11:09:46.504Z,2.80
2023-05-01T11:12:16.951Z,2.80
2023-05-01T11:14:55.122Z,3.00
2023-05-01T11:17:42.667Z,2.70
2023-05-01T11:20:12.261Z,2.70
2023-05-01T11:22:46.724Z,3.30
2023-05-01T11:25:23.632Z,3.00
2023-05-01T11:27:55.320Z,2.90
2023-05-01T11:30:24.534Z,3.70
2023-05-01T11:32:53.755Z,3.20
2023-05-01T11:35:27.615Z,3.20
2023-05-01T11:37:57.665Z,3.30
2023-05-01T11:40:31.724Z,3.10
2023-05-01T11:43:05.290Z,2.60
2023-05-01T11:45:39.201Z,2.80
2023-05-01T11:48:16.396Z,3.00
2023-05-01T11:50:45.137Z,2.80
2023-05-01T11:53:18.987Z,2.80
2023-05-01T11:55:47.723Z,3.40
2023-05-01T11:58:16.332Z,3.00
2023-05-01T12:00:45.330Z,3.30
2023-05-01T12:03:15.527Z,3.20
2023-05-01T12:05:46.064Z,2.90
2023-05-01T12:08:23.656Z,3.10
2023-05-01T12:10:58.020Z,2.90
2023-05-01T12:13:27.732Z,2.70
2023-05-01T12:15:57.593Z,3.00
2023-05-01T12:18:26.540Z,3.00
2023-05-01T12:20:55.893Z,3.00
2023-05-01T12:23:33.283Z,3.40
2023-05-01T12:26:03.748Z,2.70
2023-05-01T12:28:32.675Z,3.00
2023-05-01T12:31:05.517Z,3.20
2023-05-01T12:33:34.570Z,3.00
2023-05-01T12:36:11.998Z,2.90
2023-05-01T12:38:40.750Z,3.10
2023-05-01T12:41:12.489Z,2.80
2023-05-01T12:43:42.413Z,3.30
2023-05-01T12:46:15.251Z,2.70
2023-05-01T12:48:43.882Z,4.10
2023-05-01T12:51:21.782Z,3.70
2023-05-01T12:53:52.086Z,3.10
2023-05-01T12:56:26.336Z,3.30
2023-05-01T12:58:56.031Z,3.20
2023-05-01T13:01:29.297Z,3.40
2023-05-01T13:03:59.471Z,3.10
2023-05-01T13:06:34.282Z,3.30
2023-05-01T13:09:10.652Z,3.90
2023-05-01T13:11:39.435Z,3.30
2023-05-01T13:14:12.820Z,3.80
2023-05-01T13:16:47.015Z,3.90
2023-05-01T13:19:27.161Z,3.30
2023-05-01T13:21:59.031Z,3.30
2023-05-01T13:24:46.585Z,3.20
2023-05-01T13:27:15.395Z,3.70
2023-05-01T13:29:53.319Z,3.70
2023-05-01T13:32:21.949Z,3.70
2023-05-01T13:34:51.267Z,4.00
2023-05-01T13:37:21.595Z,3.20
2023-05-01T13:39:50.429Z,3.80
2023-05-01T13:42:24.434Z,3.60
2023-05-01T13:44:57.250Z,4.40
2023-05-01T13:47:27.236Z,4.40
2023-05-01T13:49:56.441Z,3.00
2023-05-01T13:52:25.357Z,2.90
2023-05-01T13:54:56.878Z,2.70
2023-05-01T13:57:25.814Z,2.10
2023-05-01T13:59:54.584Z,2.10
2023-05-01T14:02:30.171Z,2.80
2023-05-01T14:05:00.790Z,2.40
2023-05-01T14:07:30.068Z,2.00
2023-05-01T14:10:00.381Z,2.70
2023-05-01T14:12:31.021Z,2.60
2023-05-01T14:15:01.859Z,2.70
2023-05-01T14:17:33.168Z,2.80
2023-05-01T14:20:02.912Z,2.60
2023-05-01T14:22:44.020Z,2.90
2023-05-01T14:25:23.530Z,3.40
2023-05-01T14:27:53.864Z,4.20
2023-05-01T14:30:30.312Z,3.70
2023-05-01T14:32:58.841Z,3.10
2023-05-01T14:35:28.110Z,3.20
2023-05-01T14:37:58.029Z,2.80
2023-05-01T14:40:28.090Z,3.00
2023-05-01T14:42:58.391Z,3.20
2023-05-01T14:45:27.553Z,1.90
2023-05-01T14:47:56.373Z,1.60
2023-05-01T14:50:28.467Z,1.90
2023-05-01T14:52:59.328Z,2.30
2023-05-01T14:55:34.974Z,2.50
2023-05-01T14:58:04.100Z,2.20
2023-05-01T15:00:32.829Z,3.20
2023-05-01T15:03:02.083Z,1.90
2023-05-01T15:05:31.724Z,1.50
2023-05-01T15:08:04.684Z,1.80
2023-05-01T15:10:34.505Z,1.70
2023-05-01T15:13:03.288Z,1.90
2023-05-01T15:15:32.102Z,2.00
2023-05-01T15:18:00.995Z,1.90
2023-05-01T15:20:30.477Z,1.80
2023-05-01T15:22:59.068Z,1.90
2023-05-01T15:25:27.842Z,1.70
2023-05-01T15:27:57.694Z,2.00
2023-05-01T15:30:26.236Z,2.80
2023-05-01T15:32:56.467Z,2.70
2023-05-01T15:35:26.604Z,2.50
2023-05-01T15:37:57.236Z,3.10
2023-05-01T15:40:25.807Z,2.70
2023-05-01T15:42:54.904Z,3.20
2023-05-01T15:45:23.865Z,3.10
2023-05-01T15:47:52.608Z,3.00
2023-05-01T15:50:22.176Z,2.60
2023-05-01T15:52:53.116Z,2.60
2023-05-01T15:55:22.437Z,2.70
2023-05-01T15:57:51.536Z,3.30
2023-05-01T16:00:22.182Z,3.00
2023-05-01T16:02:51.137Z,2.70
2023-05-01T16:05:23.613Z,3.40
2023-05-01T16:07:55.677Z,4.00
2023-05-01T16:10:25.996Z,3.30
2023-05-01T16:12:54.802Z,3.50
2023-05-01T16:15:23.777Z,4.00
2023-05-01T16:17:55.248Z,3.90
2023-05-01T16:20:24.437Z,2.80
2023-05-01T16:22:53.207Z,3.30
2023-05-01T16:25:22.505Z,2.70
2023-05-01T16:27:52.528Z,2.70
2023-05-01T16:30:25.555Z,2.50
2023-05-01T16:32:54.468Z,2.40
2023-05-01T16:35:27.936Z,2.30
2023-05-01T16:37:57.008Z,2.30
2023-05-01T16:40:25.883Z,2.70
2023-05-01T16:42:55.084Z,2.50
2023-05-01T16:45:23.747Z,3.00
2023-05-01T16:47:52.390Z,2.60
2023-05-01T16:50:23.090Z,2.60
2023-05-01T16:52:55.346Z,2.70
2023-05-01T16:55:25.330Z,2.70
2023-05-01T16:57:54.794Z,2.60
2023-05-01T17:00:23.997Z,2.50
2023-05-01T17:02:55.424Z,2.60
2023-05-01T17:05:24.223Z,2.70
2023-05-01T17:07:53.315Z,2.80
2023-05-01T17:10:22.405Z,3.00
2023-05-01T17:12:51.624Z,2.80
2023-05-01T17:15:20.803Z,2.70
2023-05-01T17:17:49.920Z,2.70
2023-05-01T17:20:19.999Z,2.90
2023-05-01T17:22:49.102Z,2.70
2023-05-01T17:25:18.233Z,3.60
2023-05-01T17:27:46.767Z,2.70
2023-05-01T17:30:16.174Z,2.90
2023-05-01T17:32:45.383Z,3.10
2023-05-01T17:35:17.759Z,4.60
2023-05-01T17:37:46.752Z,3.70
2023-05-01T17:40:16.887Z,3.30
2023-05-01T17:42:46.161Z,3.50
2023-05-01T17:45:15.780Z,3.40
2023-05-01T17:47:47.624Z,3.30
2023-05-01T17:50:16.541Z,3.30
2023-05-01T17:52:46.631Z,4.40
2023-05-01T17:55:18.203Z,5.20
2023-05-01T17:57:48.114Z,5.00
2023-05-01T18:00:18.581Z,3.90
2023-05-01T18:02:49.558Z,4.40
2023-05-01T18:05:18.807Z,4.00
2023-05-01T18:07:49.105Z,4.40
2023-05-01T18:10:18.448Z,4.80
2023-05-01T18:12:51.728Z,4.40
2023-05-01T18:15:22.986Z,4.40
2023-05-01T18:17:53.235Z,4.40
2023-05-01T18:20:24.118Z,4.40
2023-05-01T18:22:54.778Z,4.40
2023-05-01T18:25:24.796Z,4.60
2023-05-01T18:27:56.746Z,4.50
2023-05-01T18:30:30.945Z,4.40
2023-05-01T18:33:01.303Z,4.50
2023-05-01T18:35:33.716Z,5.10
2023-05-01T18:38:03.140Z,5.10
2023-05-01T18:40:33.345Z,5.70
2023-05-01T18:43:05.616Z,5.30
2023-05-01T18:45:35.839Z,5.30
2023-05-01T18:48:07.021Z,4.90
2023-05-01T18:50:38.784Z,5.40
2023-05-01T18:53:09.665Z,5.10
2023-05-01T18:55:39.229Z,4.90
2023-05-01T18:58:09.396Z,5.00
2023-05-01T19:00:40.767Z,4.50
2023-05-01T19:03:15.478Z,5.50
2023-05-01T19:05:46.200Z,5.30
2023-05-01T19:08:16.985Z,4.80
2023-05-01T19:10:47.051Z,5.00
2023-05-01T19:13:18.520Z,4.90
2023-05-01T19:15:48.959Z,4.60
2023-05-01T19:18:18.557Z,4.70
2023-05-01T19:20:48.699Z,5.60
2023-05-01T19:23:23.056Z,5.10
2023-05-01T19:26:01.605Z,5.70
2023-05-01T19:28:38.460Z,5.00
2023-05-01T19:31:14.567Z,4.40
2023-05-01T19:33:54.279Z,4.20
2023-05-01T19:36:29.744Z,3.50
2023-05-01T19:39:08.186Z,4.00
2023-05-01T19:41:42.212Z,3.20
2023-05-01T19:44:19.086Z,3.40
2023-05-01T19:46:53.442Z,3.50
2023-05-01T19:49:27.482Z,3.90
2023-05-01T19:52:04.673Z,4.10
2023-05-01T19:54:45.918Z,4.10
2023-05-01T19:57:19.457Z,4.30
2023-05-01T19:59:50.809Z,4.10
2023-05-01T20:02:24.488Z,4.40
2023-05-01T20:04:58.219Z,4.50
2023-05-01T20:07:34.620Z,4.90
2023-05-01T20:10:09.286Z,5.30
2023-05-01T20:12:41.660Z,5.20
2023-05-01T20:15:12.398Z,5.20
2023-05-01T20:17:42.620Z,4.70
2023-05-01T20:20:11.817Z,4.00
2023-05-01T20:22:41.097Z,4.50
2023-05-01T20:25:11.108Z,4.10
2023-05-01T20:27:41.122Z,4.10
2023-05-01T20:30:12.068Z,4.50
2023-05-01T20:32:44.976Z,5.00
2023-05-01T20:35:14.698Z,4.20
2023-05-01T20:37:43.648Z,4.40
2023-05-01T20:40:13.377Z,3.80
2023-05-01T20:42:43.586Z,4.10
2023-05-01T20:45:13.089Z,4.40
2023-05-01T20:47:42.033Z,4.60
2023-05-01T20:50:11.687Z,4.70
2023-05-01T20:52:40.823Z,5.10
2023-05-01T20:55:10.193Z,5.10
2023-05-01T20:57:40.636Z,5.10
2023-05-01T21:00:09.940Z,5.00
2023-05-01T21:02:39.631Z,4.80
2023-05-01T21:05:12.540Z,4.60
2023-05-01T21:07:41.615Z,5.10
2023-05-01T21:10:11.292Z,4.40
2023-05-01T21:12:45.220Z,4.40
2023-05-01T21:15:15.340Z,4.30
2023-05-01T21:17:44.211Z,5.10
2023-05-01T21:20:17.136Z,5.20
2023-05-01T21:22:46.602Z,4.40
2023-05-01T21:25:20.199Z,4.50
2023-05-01T21:27:48.682Z,4.10
2023-05-01T21:30:37.750Z,4.70
2023-05-01T21:33:08.929Z,4.60
2023-05-01T21:35:42.287Z,4.10
2023-05-01T21:38:11.522Z,3.70
2023-05-01T21:40:43.749Z,4.50
2023-05-01T21:43:15.523Z,4.10
2023-05-01T21:45:50.307Z,4.20
2023-05-01T21:48:20.212Z,4.20
2023-05-01T21:50:50.444Z,3.90
2023-05-01T21:53:20.134Z,4.50
2023-05-01T21:55:49.301Z,4.20
2023-05-01T21:58:18.192Z,4.20
2023-05-01T22:00:47.225Z,4.10
2023-05-01T22:03:18.464Z,4.20
2023-05-01T22:05:47.211Z,4.00
2023-05-01T22:08:15.907Z,4.40
2023-05-01T22:10:45.792Z,4.20
2023-05-01T22:13:14.425Z,5.10
2023-05-01T22:15:43.281Z,4.60
2023-05-01T22:18:18.394Z,4.60
2023-05-01T22:20:52.676Z,4.20
2023-05-01T22:23:27.918Z,4.70
2023-05-01T22:26:01.052Z,5.00
2023-05-01T22:28:34.526Z,5.10
2023-05-01T22:31:07.498Z,5.10
2023-05-01T22:33:38.094Z,5.10
2023-05-01T22:36:07.576Z,5.10
2023-05-01T22:38:36.870Z,4.80
2023-05-01T22:41:06.477Z,4.30
2023-05-01T22:43:35.188Z,5.00
2023-05-01T22:46:06.265Z,5.50
2023-05-01T22:48:35.220Z,4.80
2023-05-01T22:51:04.408Z,4.90
2023-05-01T22:53:33.219Z,4.60
2023-05-01T22:56:02.091Z,5.30
2023-05-01T22:58:30.895Z,5.10
2023-05-01T23:00:59.879Z,4.80
2023-05-01T23:03:34.574Z,4.50
2023-05-01T23:06:08.099Z,5.10
2023-05-01T23:08:42.356Z,5.20
2023-05-01T23:11:22.142Z,5.50
2023-05-01T23:13:56.693Z,5.10
2023-05-01T23:16:28.294Z,5.20
2023-05-01T23:19:01.368Z,4.90
2023-05-01T23:21:34.043Z,5.30
2023-05-01T23:24:06.637Z,5.30
2023-05-01T23:26:42.540Z,5.40
2023-05-01T23:29:18.308Z,5.20
2023-05-01T23:31:50.266Z,5.10
2023-05-01T23:34:20.239Z,5.40
2023-05-01T23:36:49.083Z,5.00
2023-05-01T23:39:18.538Z,5.50
2023-05-01T23:41:47.648Z,5.90
2023-05-01T23:44:16.731Z,5.90
2023-05-01T23:46:45.556Z,5.70
2023-05-01T23:49:14.425Z,5.10
2023-05-01T23:51:45.564Z,4.90
2023-05-01T23:54:14.243Z,4.70
2023-05-01T23:56:43.343Z,5.20
2023-05-01T23:59:12.543Z,4.90
